createdAt,value
2018-07-29T00:02:59.548Z,7.30
2018-07-29T00:08:02.664Z,8.57
2018-07-29T00:13:05.790Z,8.90
2018-07-29T00:18:08.842Z,7.97
2018-07-29T00:23:11.893Z,6.00
2018-07-29T00:28:15.712Z,6.00
2018-07-29T00:33:18.821Z,6.60
2018-07-29T00:38:21.832Z,8.07
2018-07-29T00:43:24.890Z,8.20
2018-07-29T00:48:27.970Z,7.80
2018-07-29T00:53:31.074Z,9.17
2018-07-29T00:58:34.081Z,8.17
2018-07-29T01:03:37.137Z,9.23
2018-07-29T01:08:40.178Z,10.43
2018-07-29T01:13:43.209Z,9.53
2018-07-29T01:18:46.279Z,9.17
2018-07-29T01:23:49.269Z,9.47
2018-07-29T01:28:52.281Z,9.70
2018-07-29T01:33:55.265Z,9.10
2018-07-29T01:38:58.284Z,8.97
2018-07-29T01:44:01.297Z,9.20
2018-07-29T01:49:04.428Z,8.13
2018-07-29T01:54:07.416Z,9.20
2018-07-29T01:59:10.408Z,9.00
2018-07-29T02:04:13.393Z,11.40
2018-07-29T02:09:16.401Z,10.47
2018-07-29T02:14:19.369Z,10.60
2018-07-29T02:19:22.368Z,8.87
2018-07-29T02:24:25.368Z,10.57
2018-07-29T02:29:28.401Z,10.03
2018-07-29T02:34:31.429Z,9.57
2018-07-29T02:39:34.462Z,9.90
2018-07-29T02:44:37.528Z,8.90
2018-07-29T02:49:40.532Z,9.63
2018-07-29T02:54:43.607Z,9.40
2018-07-29T02:59:46.696Z,9.00
2018-07-29T03:04:49.705Z,10.00
2018-07-29T03:09:52.828Z,9.07
2018-07-29T03:14:55.797Z,9.50
2018-07-29T03:19:58.901Z,9.63
2018-07-29T03:25:01.913Z,9.90
2018-07-29T03:30:06.822Z,10.50
2018-07-29T03:35:09.833Z,8.53
2018-07-29T03:40:12.865Z,9.90
2018-07-29T03:45:15.837Z,10.20
2018-07-29T03:50:18.864Z,9.50
2018-07-29T03:55:21.939Z,10.03
2018-07-29T04:00:25.076Z,9.30
2018-07-29T04:05:28.103Z,8.43
2018-07-29T04:10:31.132Z,9.83
2018-07-29T04:15:34.151Z,9.30
2018-07-29T04:20:37.217Z,9.30
2018-07-29T04:25:40.225Z,8.93
2018-07-29T04:30:43.257Z,8.70
2018-07-29T04:35:46.648Z,8.70
2018-07-29T04:40:49.744Z,10.23
2018-07-29T04:45:52.786Z,8.50
2018-07-29T04:50:55.845Z,7.63
2018-07-29T04:55:58.925Z,6.30
2018-07-29T05:01:02.045Z,6.33
2018-07-29T05:06:05.966Z,7.03
2018-07-29T05:11:09.202Z,6.40
2018-07-29T05:16:12.207Z,6.23
2018-07-29T05:21:15.209Z,6.17
2018-07-29T05:26:18.441Z,6.00
2018-07-29T05:31:21.450Z,6.30
2018-07-29T05:36:24.464Z,5.50
2018-07-29T05:41:27.841Z,5.73
2018-07-29T05:46:31.036Z,5.70
2018-07-29T05:51:34.097Z,4.37
2018-07-29T05:56:37.121Z,5.40
2018-07-29T06:01:40.182Z,4.60
2018-07-29T06:06:43.664Z,4.60
2018-07-29T06:11:46.768Z,4.10
2018-07-29T06:16:49.789Z,3.80
2018-07-29T06:21:58.664Z,3.30
2018-07-29T06:27:01.769Z,3.33
2018-07-29T06:32:05.967Z,3.50
2018-07-29T06:37:09.210Z,3.73
2018-07-29T06:42:12.437Z,2.90
2018-07-29T06:47:16.072Z,3.53
2018-07-29T06:52:19.120Z,2.20
2018-07-29T06:57:22.172Z,3.17
2018-07-29T07:02:25.197Z,2.30
2018-07-29T07:07:28.228Z,2.57
2018-07-29T07:12:31.206Z,2.50
2018-07-29T07:17:34.204Z,2.30
2018-07-29T07:22:37.265Z,1.80
2018-07-29T07:27:40.260Z,1.67
2018-07-29T07:32:43.427Z,3.03
2018-07-29T07:37:46.429Z,1.73
2018-07-29T07:42:49.481Z,1.77
2018-07-29T07:47:52.536Z,1.60
2018-07-29T07:52:55.608Z,1.90
2018-07-29T07:57:58.668Z,1.73
2018-07-29T08:03:01.852Z,1.67
2018-07-29T08:08:05.103Z,1.90
2018-07-29T08:13:08.268Z,2.50
2018-07-29T08:18:11.288Z,2.00
2018-07-29T08:23:14.917Z,2.00
2018-07-29T08:28:17.961Z,1.70
2018-07-29T08:33:21.034Z,2.73
2018-07-29T08:38:24.176Z,1.63
2018-07-29T08:43:27.262Z,2.30
2018-07-29T08:48:30.232Z,2.33
2018-07-29T08:53:33.366Z,2.80
2018-07-29T08:58:36.586Z,2.13
2018-07-29T09:03:39.597Z,2.10
2018-07-29T09:08:42.625Z,2.30
2018-07-29T09:13:45.662Z,2.50
2018-07-29T09:18:48.703Z,2.63
2018-07-29T09:23:51.756Z,2.50
2018-07-29T09:28:54.821Z,2.37
2018-07-29T09:33:58.026Z,2.77
2018-07-29T09:39:01.026Z,2.23
2018-07-29T09:44:04.098Z,3.27
2018-07-29T09:49:07.222Z,2.13
2018-07-29T09:54:10.371Z,2.40
2018-07-29T09:59:13.369Z,5.00
2018-07-29T10:04:16.398Z,2.60
2018-07-29T10:09:30.624Z,2.70
2018-07-29T10:14:33.716Z,2.77
2018-07-29T10:19:36.818Z,3.20
2018-07-29T10:24:39.850Z,3.00
2018-07-29T10:29:42.849Z,3.30
2018-07-29T10:34:46.157Z,3.40
2018-07-29T10:39:49.345Z,3.93
2018-07-29T10:44:52.329Z,4.20
2018-07-29T10:49:55.530Z,4.00
2018-07-29T10:54:58.573Z,4.03
2018-07-29T11:00:01.586Z,4.17
2018-07-29T11:05:04.690Z,3.97
2018-07-29T11:10:07.774Z,4.17
2018-07-29T11:15:10.829Z,4.53
2018-07-29T11:20:13.942Z,4.40
2018-07-29T11:25:17.013Z,3.80
2018-07-29T11:30:20.249Z,4.50
2018-07-29T11:35:23.249Z,5.03
2018-07-29T11:40:26.308Z,4.63
2018-07-29T11:45:29.373Z,4.70
2018-07-29T11:50:32.378Z,4.40
2018-07-29T11:55:35.444Z,4.90
2018-07-29T12:00:38.522Z,4.80
2018-07-29T12:05:41.563Z,4.20
2018-07-29T12:10:44.625Z,4.60
2018-07-29T12:15:47.638Z,4.70
2018-07-29T12:20:55.404Z,5.70
2018-07-29T12:25:58.829Z,4.87
2018-07-29T12:31:01.872Z,3.50
2018-07-29T12:36:06.365Z,3.73
2018-07-29T12:41:09.482Z,3.70
2018-07-29T12:46:12.598Z,3.83
2018-07-29T12:51:15.695Z,3.27
2018-07-29T12:56:18.760Z,3.60
2018-07-29T13:01:21.790Z,3.50
2018-07-29T13:06:24.824Z,3.27
2018-07-29T13:11:27.889Z,3.53
2018-07-29T13:16:30.933Z,3.57
2018-07-29T13:21:34.148Z,3.80
2018-07-29T13:26:37.152Z,3.60
2018-07-29T13:31:40.170Z,3.10
2018-07-29T13:36:43.227Z,3.20
2018-07-29T13:41:46.339Z,3.60
2018-07-29T13:46:49.495Z,3.40
2018-07-29T13:51:52.502Z,3.13
2018-07-29T13:56:55.680Z,2.80
2018-07-29T14:01:58.797Z,3.00
2018-07-29T14:07:01.913Z,2.90
2018-07-29T14:12:05.041Z,2.57
2018-07-29T14:17:08.225Z,2.50
2018-07-29T14:22:11.257Z,2.60
2018-07-29T14:27:14.640Z,2.20
2018-07-29T14:32:17.718Z,2.00
2018-07-29T14:37:22.270Z,2.00
2018-07-29T14:42:25.357Z,1.93
2018-07-29T14:47:28.419Z,2.10
2018-07-29T14:52:31.453Z,2.00
2018-07-29T14:57:34.443Z,2.00
2018-07-29T15:02:37.494Z,1.77
2018-07-29T15:07:41.078Z,2.00
2018-07-29T15:12:44.132Z,1.90
2018-07-29T15:17:47.384Z,2.00
2018-07-29T15:22:50.559Z,1.90
2018-07-29T15:27:53.626Z,2.20
2018-07-29T15:32:56.829Z,2.30
2018-07-29T15:37:59.903Z,2.50
2018-07-29T15:43:02.916Z,2.10
2018-07-29T15:48:06.038Z,1.83
2018-07-29T15:53:09.063Z,2.23
2018-07-29T15:58:12.117Z,2.40
2018-07-29T16:03:15.141Z,2.33
2018-07-29T16:08:18.183Z,2.53
2018-07-29T16:13:21.220Z,2.30
2018-07-29T16:18:24.220Z,2.40
2018-07-29T16:23:27.257Z,1.97
2018-07-29T16:28:30.280Z,2.53
2018-07-29T16:33:33.358Z,1.97
2018-07-29T16:38:36.344Z,2.17
2018-07-29T16:43:39.369Z,1.90
2018-07-29T16:48:42.369Z,1.90
2018-07-29T16:53:45.404Z,2.57
2018-07-29T16:58:48.471Z,2.40
2018-07-29T17:03:51.668Z,2.50
2018-07-29T17:08:54.817Z,2.20
2018-07-29T17:13:57.870Z,2.30
2018-07-29T17:19:00.948Z,2.50
2018-07-29T17:24:04.066Z,2.63
2018-07-29T17:29:07.146Z,2.17
2018-07-29T17:34:10.144Z,2.90
2018-07-29T17:39:13.164Z,2.60
2018-07-29T17:44:16.161Z,2.53
2018-07-29T17:49:19.169Z,2.03
2018-07-29T17:54:22.187Z,2.50
2018-07-29T17:59:25.253Z,2.60
2018-07-29T18:04:28.506Z,2.67
2018-07-29T18:09:31.704Z,2.50
2018-07-29T18:14:34.908Z,2.67
2018-07-29T18:19:37.959Z,2.50
2018-07-29T18:24:41.001Z,2.87
2018-07-29T18:29:44.097Z,2.77
2018-07-29T18:34:47.149Z,2.97
2018-07-29T18:39:50.552Z,3.00
2018-07-29T18:44:53.597Z,2.87
2018-07-29T18:49:57.421Z,2.10
2018-07-29T18:55:02.295Z,2.53
2018-07-29T19:00:06.868Z,2.43
2018-07-29T19:05:10.920Z,3.10
2018-07-29T19:10:14.090Z,2.60
2018-07-29T19:15:17.204Z,2.50
2018-07-29T19:20:20.247Z,2.90
2018-07-29T19:25:23.476Z,3.33
2018-07-29T19:30:26.910Z,2.93
2018-07-29T19:35:30.765Z,2.77
2018-07-29T19:40:33.822Z,3.10
2018-07-29T19:45:37.086Z,3.03
2018-07-29T19:50:40.233Z,2.77
2018-07-29T19:55:43.309Z,2.70
2018-07-29T20:00:46.399Z,3.00
2018-07-29T20:05:49.456Z,2.90
2018-07-29T20:10:52.713Z,2.50
2018-07-29T20:15:55.762Z,3.20
2018-07-29T20:20:58.853Z,3.50
2018-07-29T20:26:01.880Z,2.80
2018-07-29T20:31:05.065Z,3.40
2018-07-29T20:36:08.156Z,2.73
2018-07-29T20:41:11.241Z,2.67
2018-07-29T20:46:14.315Z,3.30
2018-07-29T20:51:17.478Z,3.30
2018-07-29T20:56:20.513Z,3.27
2018-07-29T21:01:23.593Z,3.00
2018-07-29T21:06:26.660Z,3.13
2018-07-29T21:11:29.750Z,3.03
2018-07-29T21:16:32.718Z,3.77
2018-07-29T21:21:35.821Z,3.00
2018-07-29T21:26:38.862Z,3.23
2018-07-29T21:31:41.874Z,3.30
2018-07-29T21:36:44.904Z,3.10
2018-07-29T21:41:47.943Z,3.07
2018-07-29T21:46:51.066Z,2.80
2018-07-29T21:51:54.094Z,3.00
2018-07-29T21:56:57.151Z,3.13
2018-07-29T22:02:00.341Z,3.63
2018-07-29T22:07:03.392Z,2.87
2018-07-29T22:12:06.490Z,3.87
2018-07-29T22:17:09.517Z,3.67
2018-07-29T22:22:12.601Z,3.57
2018-07-29T22:27:15.642Z,3.30
2018-07-29T22:32:18.678Z,3.60
2018-07-29T22:37:21.717Z,3.97
2018-07-29T22:42:24.759Z,3.27
2018-07-29T22:47:27.848Z,3.73
2018-07-29T22:52:31.543Z,3.63
2018-07-29T22:57:34.620Z,3.63
2018-07-29T23:02:37.735Z,3.63
2018-07-29T23:07:40.773Z,4.17
2018-07-29T23:12:43.782Z,3.40
2018-07-29T23:17:46.797Z,3.80
2018-07-29T23:22:49.820Z,3.33
2018-07-29T23:27:52.830Z,3.90
2018-07-29T23:32:55.920Z,3.67
2018-07-29T23:37:58.974Z,3.73
2018-07-29T23:43:01.958Z,3.83
2018-07-29T23:48:05.130Z,3.60
2018-07-29T23:53:08.141Z,3.70
2018-07-29T23:58:11.244Z,4.00
